createdAt,value
2016-11-23T00:00:33.145Z,0
2016-11-23T00:01:14.811Z,0
2016-11-23T00:01:56.500Z,0
2016-11-23T00:02:38.118Z,0
2016-11-23T00:03:19.832Z,0
2016-11-23T00:04:01.398Z,0
2016-11-23T00:06:32.311Z,0
2016-11-23T00:07:14.115Z,0
2016-11-23T00:07:55.724Z,0
2016-11-23T00:08:37.364Z,0
2016-11-23T00:09:19.184Z,0
2016-11-23T00:11:55.489Z,0
2016-11-23T00:12:37.134Z,0
2016-11-23T00:13:18.715Z,0
2016-11-23T00:14:00.395Z,0
2016-11-23T00:14:41.998Z,0
2016-11-23T00:15:23.604Z,0
2016-11-23T00:16:05.308Z,0
2016-11-23T00:16:47.034Z,0
2016-11-23T00:17:28.620Z,0
2016-11-23T00:19:59.619Z,0
2016-11-23T00:20:41.314Z,0
2016-11-23T00:21:22.915Z,0
2016-11-23T00:22:04.510Z,0
2016-11-23T00:24:40.796Z,0
2016-11-23T00:25:22.418Z,0
2016-11-23T00:26:04.109Z,0
2016-11-23T00:26:45.768Z,0
2016-11-23T00:27:27.430Z,0
2016-11-23T00:28:09.190Z,0
2016-11-23T00:28:50.813Z,0
2016-11-23T00:29:32.332Z,0
2016-11-23T00:34:08.751Z,0
2016-11-23T00:34:50.482Z,0
2016-11-23T00:35:32.014Z,0
2016-11-23T00:37:47.565Z,0
2016-11-23T00:38:29.207Z,0
2016-11-23T00:39:10.820Z,0
2016-11-23T00:39:52.485Z,0
2016-11-23T00:40:34.133Z,0
2016-11-23T00:41:15.840Z,0
2016-11-23T00:41:57.469Z,0
2016-11-23T00:42:39.114Z,0
2016-11-23T00:43:20.840Z,0
2016-11-23T00:44:02.329Z,0
2016-11-23T00:44:43.686Z,0
2016-11-23T00:45:25.375Z,0
2016-11-23T00:47:40.827Z,0
2016-11-23T00:50:17.057Z,0
2016-11-23T00:50:58.559Z,0
2016-11-23T00:51:40.071Z,0
2016-11-23T00:52:21.684Z,0
2016-11-23T00:53:03.505Z,0
2016-11-23T00:55:39.822Z,0
2016-11-23T00:56:21.563Z,0
2016-11-23T00:57:03.306Z,0
2016-11-23T00:57:44.873Z,0
2016-11-23T00:58:26.531Z,0
2016-11-23T00:59:08.215Z,0
2016-11-23T01:01:38.139Z,0
2016-11-23T01:02:18.679Z,0
2016-11-23T01:02:59.221Z,0
2016-11-23T01:03:39.762Z,0
2016-11-23T01:04:20.302Z,0
2016-11-23T01:05:00.844Z,0
2016-11-23T01:05:41.382Z,0
2016-11-23T01:06:21.921Z,0
2016-11-23T01:07:02.458Z,0
2016-11-23T01:07:42.998Z,0
2016-11-23T01:08:23.542Z,0
2016-11-23T01:09:04.093Z,0
2016-11-23T01:09:44.629Z,0
2016-11-23T01:10:25.167Z,0
2016-11-23T01:11:05.701Z,0
2016-11-23T01:11:46.231Z,0
2016-11-23T01:12:26.773Z,0
2016-11-23T01:13:07.314Z,0
2016-11-23T01:13:47.857Z,0
2016-11-23T01:14:28.389Z,0
2016-11-23T01:15:08.927Z,0
2016-11-23T01:15:49.461Z,0
2016-11-23T01:16:29.993Z,0
2016-11-23T01:17:10.531Z,0
2016-11-23T01:17:51.069Z,0
2016-11-23T01:18:31.608Z,0
2016-11-23T01:19:12.151Z,0
2016-11-23T01:19:52.692Z,0
2016-11-23T01:20:33.231Z,0
2016-11-23T01:21:13.769Z,0
2016-11-23T01:21:54.308Z,0
2016-11-23T01:22:34.849Z,0
2016-11-23T01:23:15.389Z,0
2016-11-23T01:23:55.934Z,0
2016-11-23T01:24:36.482Z,0
2016-11-23T01:25:17.021Z,0
2016-11-23T01:25:57.627Z,0
2016-11-23T01:26:38.169Z,0
2016-11-23T01:27:18.705Z,0
2016-11-23T01:27:59.246Z,0
2016-11-23T01:28:39.785Z,0
2016-11-23T01:29:20.325Z,0
2016-11-23T01:30:00.870Z,0
2016-11-23T01:30:41.417Z,0
2016-11-23T01:31:21.957Z,0
2016-11-23T01:32:02.494Z,0
2016-11-23T01:32:43.038Z,0
2016-11-23T01:33:23.579Z,0
2016-11-23T01:34:04.122Z,0
2016-11-23T01:34:44.661Z,0
2016-11-23T01:35:25.202Z,0
2016-11-23T01:36:05.743Z,0
2016-11-23T01:36:46.281Z,0
2016-11-23T01:37:26.820Z,0
2016-11-23T01:38:07.361Z,0
2016-11-23T01:38:47.904Z,0
2016-11-23T01:39:28.452Z,0
2016-11-23T01:40:08.981Z,0
2016-11-23T01:40:49.525Z,0
2016-11-23T01:41:30.068Z,0
2016-11-23T01:42:10.607Z,0
2016-11-23T01:42:51.151Z,0
2016-11-23T01:43:31.692Z,0
2016-11-23T01:44:12.226Z,0
2016-11-23T01:44:52.776Z,0
2016-11-23T01:45:33.313Z,0
2016-11-23T01:46:13.849Z,0
2016-11-23T01:46:54.386Z,0
2016-11-23T01:47:34.926Z,0
2016-11-23T01:48:15.471Z,0
2016-11-23T01:48:56.013Z,0
2016-11-23T01:49:36.557Z,0
2016-11-23T01:50:17.099Z,0
2016-11-23T01:50:57.641Z,0
2016-11-23T01:51:38.183Z,0
2016-11-23T01:52:18.721Z,0
2016-11-23T01:52:59.272Z,0
2016-11-23T01:53:39.792Z,0
2016-11-23T01:54:20.329Z,0
2016-11-23T01:55:00.864Z,0
2016-11-23T01:55:41.408Z,0
2016-11-23T01:56:21.944Z,0
2016-11-23T01:57:02.488Z,0
2016-11-23T01:57:43.024Z,0
2016-11-23T01:58:23.558Z,0
2016-11-23T01:59:04.094Z,0
2016-11-23T01:59:44.633Z,0
2016-11-23T02:00:25.167Z,0
2016-11-23T02:01:05.713Z,0
2016-11-23T02:01:46.252Z,0
2016-11-23T02:02:26.794Z,0
2016-11-23T02:03:07.363Z,0
2016-11-23T02:03:47.902Z,0
2016-11-23T02:04:28.443Z,0
2016-11-23T02:05:08.990Z,0
2016-11-23T02:05:49.518Z,0
2016-11-23T02:06:30.054Z,0
2016-11-23T02:07:10.592Z,0
2016-11-23T02:07:51.133Z,0
2016-11-23T02:08:31.674Z,0
2016-11-23T02:09:12.215Z,0
2016-11-23T02:09:52.750Z,0
2016-11-23T02:10:33.292Z,0
2016-11-23T02:11:13.839Z,0
2016-11-23T02:11:54.379Z,0
2016-11-23T02:12:34.938Z,0
2016-11-23T02:13:15.472Z,0
2016-11-23T02:13:56.013Z,0
2016-11-23T02:14:36.549Z,0
2016-11-23T02:15:17.089Z,0
2016-11-23T02:15:57.629Z,0
2016-11-23T02:16:38.165Z,0
2016-11-23T02:17:18.716Z,0
2016-11-23T02:17:59.261Z,0
2016-11-23T02:18:39.794Z,0
2016-11-23T02:19:20.338Z,0
2016-11-23T02:20:00.879Z,0
2016-11-23T02:20:41.417Z,0
2016-11-23T02:21:21.944Z,0
2016-11-23T02:22:02.484Z,0
2016-11-23T02:22:43.020Z,0
2016-11-23T02:23:23.564Z,0
2016-11-23T02:24:04.098Z,0
2016-11-23T02:24:44.635Z,0
2016-11-23T02:25:25.165Z,0
2016-11-23T02:26:05.705Z,0
2016-11-23T02:26:46.246Z,0
2016-11-23T02:27:26.789Z,0
2016-11-23T02:28:07.323Z,0
2016-11-23T02:28:47.858Z,0
2016-11-23T02:29:28.402Z,0
2016-11-23T02:30:08.943Z,0
2016-11-23T02:30:49.482Z,0
2016-11-23T02:31:30.022Z,0
2016-11-23T02:32:10.562Z,0
2016-11-23T02:32:51.101Z,0
2016-11-23T02:33:31.632Z,0
2016-11-23T02:34:12.176Z,0
2016-11-23T02:34:52.720Z,0
2016-11-23T02:35:33.256Z,0
2016-11-23T02:36:13.794Z,0
2016-11-23T02:36:54.330Z,0
2016-11-23T02:37:34.869Z,0
2016-11-23T02:38:15.394Z,0
2016-11-23T02:38:55.938Z,0
2016-11-23T02:39:36.479Z,0
2016-11-23T02:40:17.022Z,0
2016-11-23T02:40:57.562Z,0
2016-11-23T02:41:38.097Z,0
2016-11-23T02:42:18.638Z,0
2016-11-23T02:42:59.169Z,0
2016-11-23T02:43:39.706Z,0
2016-11-23T02:44:20.251Z,0
2016-11-23T02:45:00.786Z,0
2016-11-23T02:45:41.337Z,0
2016-11-23T02:46:21.879Z,0
2016-11-23T02:47:02.419Z,0
2016-11-23T02:47:42.955Z,0
2016-11-23T02:48:23.490Z,0
2016-11-23T02:49:04.029Z,0
2016-11-23T02:49:44.558Z,0
2016-11-23T02:50:25.094Z,0
2016-11-23T02:51:05.637Z,0
2016-11-23T02:51:46.208Z,0
2016-11-23T02:52:26.744Z,0
2016-11-23T02:53:07.287Z,0
2016-11-23T02:53:47.824Z,0
2016-11-23T02:54:28.363Z,0
2016-11-23T02:55:08.904Z,0
2016-11-23T02:55:49.441Z,0
2016-11-23T02:56:29.981Z,0
2016-11-23T02:57:10.521Z,0
2016-11-23T02:57:51.061Z,0
2016-11-23T02:58:31.599Z,0
2016-11-23T02:59:12.140Z,0
2016-11-23T02:59:52.683Z,0
2016-11-23T03:00:33.221Z,0
2016-11-23T03:01:13.753Z,0
2016-11-23T03:01:54.291Z,0
2016-11-23T03:02:34.830Z,0
2016-11-23T03:03:15.367Z,0
2016-11-23T03:03:55.904Z,0
2016-11-23T03:04:36.437Z,0
2016-11-23T03:05:16.982Z,0
2016-11-23T03:05:57.521Z,0
2016-11-23T03:06:38.057Z,0
2016-11-23T03:07:18.590Z,0
2016-11-23T03:07:59.128Z,0
2016-11-23T03:08:39.671Z,0
2016-11-23T03:09:20.209Z,0
2016-11-23T03:10:00.754Z,0
2016-11-23T03:10:41.293Z,0
2016-11-23T03:11:21.824Z,0
2016-11-23T03:12:02.361Z,0
2016-11-23T03:12:42.894Z,0
2016-11-23T03:13:23.432Z,0
2016-11-23T03:14:03.975Z,0
2016-11-23T03:14:44.508Z,0
2016-11-23T03:15:25.041Z,0
2016-11-23T03:16:05.578Z,0
2016-11-23T03:16:46.121Z,0
2016-11-23T03:17:26.654Z,0
2016-11-23T03:18:07.202Z,0
2016-11-23T03:18:47.737Z,0
2016-11-23T03:19:28.277Z,0
2016-11-23T03:20:08.824Z,0
2016-11-23T03:20:49.367Z,0
2016-11-23T03:21:29.905Z,0
2016-11-23T03:22:10.460Z,0
2016-11-23T03:22:50.979Z,0
2016-11-23T03:23:31.521Z,0
2016-11-23T03:24:12.059Z,0
2016-11-23T03:24:52.594Z,0
2016-11-23T03:25:33.133Z,0
2016-11-23T03:26:13.671Z,0
2016-11-23T03:26:54.213Z,0
2016-11-23T03:27:34.752Z,0
2016-11-23T03:28:15.289Z,0
2016-11-23T03:28:55.825Z,0
2016-11-23T03:29:36.363Z,0
2016-11-23T03:30:16.901Z,0
2016-11-23T03:30:57.445Z,0
2016-11-23T03:31:37.986Z,0
2016-11-23T03:32:18.525Z,0
2016-11-23T03:32:59.069Z,0
2016-11-23T03:33:39.608Z,0
2016-11-23T03:34:20.155Z,0
2016-11-23T03:35:00.692Z,0
2016-11-23T03:35:41.224Z,0
2016-11-23T03:36:21.759Z,0
2016-11-23T03:37:02.300Z,0
2016-11-23T03:37:42.843Z,0
2016-11-23T03:38:23.381Z,0
2016-11-23T03:39:03.924Z,0
2016-11-23T03:39:44.511Z,0
2016-11-23T03:40:24.999Z,0
2016-11-23T03:41:05.535Z,0
2016-11-23T03:41:46.072Z,0
2016-11-23T03:42:26.611Z,0
2016-11-23T03:43:07.150Z,0
2016-11-23T03:43:47.686Z,0
2016-11-23T03:44:28.230Z,0
2016-11-23T03:45:08.764Z,0
2016-11-23T03:45:49.301Z,0
2016-11-23T03:46:29.831Z,0
2016-11-23T03:47:10.367Z,0
2016-11-23T03:47:50.907Z,0
2016-11-23T03:48:31.454Z,0
2016-11-23T03:49:11.990Z,0
2016-11-23T03:49:52.532Z,0
2016-11-23T03:50:33.072Z,0
2016-11-23T03:51:13.602Z,0
2016-11-23T03:51:54.137Z,0
2016-11-23T03:52:34.685Z,0
2016-11-23T03:53:15.232Z,0
2016-11-23T03:53:55.772Z,0
2016-11-23T03:54:36.309Z,0
2016-11-23T03:55:16.846Z,0
2016-11-23T03:55:57.393Z,0
2016-11-23T03:56:37.926Z,0
2016-11-23T03:57:18.466Z,0
2016-11-23T03:57:59.008Z,0
2016-11-23T03:58:39.542Z,0
2016-11-23T03:59:20.083Z,0
2016-11-23T04:00:00.620Z,0
2016-11-23T04:00:41.155Z,0
2016-11-23T04:01:21.702Z,0
2016-11-23T04:02:02.242Z,0
2016-11-23T04:02:42.780Z,0
2016-11-23T04:03:23.321Z,0
2016-11-23T04:04:03.865Z,0
2016-11-23T04:04:44.395Z,0
2016-11-23T04:05:24.939Z,0
2016-11-23T04:06:05.476Z,0
2016-11-23T04:06:46.020Z,0
2016-11-23T04:07:26.557Z,0
2016-11-23T04:08:07.090Z,0
2016-11-23T04:08:47.637Z,0
2016-11-23T04:09:28.181Z,0
2016-11-23T04:10:08.716Z,0
2016-11-23T04:10:49.250Z,0
2016-11-23T04:11:29.796Z,0
2016-11-23T04:12:10.368Z,0
2016-11-23T04:12:50.907Z,0
2016-11-23T04:13:31.448Z,0
2016-11-23T04:14:12.035Z,0
2016-11-23T04:14:52.583Z,0
2016-11-23T04:15:33.116Z,0
2016-11-23T04:16:13.651Z,0
2016-11-23T04:16:54.189Z,0
2016-11-23T04:17:34.730Z,0
2016-11-23T04:18:15.269Z,0
2016-11-23T04:18:55.807Z,0
2016-11-23T04:19:36.348Z,0
2016-11-23T04:20:16.888Z,0
2016-11-23T04:20:57.428Z,0
2016-11-23T04:21:37.969Z,0
2016-11-23T04:22:18.505Z,0
2016-11-23T04:22:59.048Z,0
2016-11-23T04:23:39.583Z,0
2016-11-23T04:24:20.120Z,0
2016-11-23T04:25:00.665Z,0
2016-11-23T04:25:41.203Z,0
2016-11-23T04:26:21.745Z,0
2016-11-23T04:27:02.285Z,0
2016-11-23T04:27:42.823Z,0
2016-11-23T04:28:23.367Z,0
2016-11-23T04:29:03.911Z,0
2016-11-23T04:29:44.453Z,0
2016-11-23T04:30:24.998Z,0
2016-11-23T04:31:05.534Z,0
2016-11-23T04:31:46.080Z,0
2016-11-23T04:32:26.623Z,0
2016-11-23T04:33:07.159Z,0
2016-11-23T04:33:47.702Z,0
2016-11-23T04:34:28.242Z,0
2016-11-23T04:35:08.779Z,0
2016-11-23T04:35:49.318Z,0
2016-11-23T04:36:29.900Z,0
2016-11-23T04:37:10.476Z,0
2016-11-23T04:37:51.014Z,0
2016-11-23T04:38:31.558Z,0
2016-11-23T04:39:12.097Z,0
2016-11-23T04:39:52.627Z,0
2016-11-23T04:40:33.185Z,0
2016-11-23T04:41:13.726Z,0
2016-11-23T04:41:54.298Z,0
2016-11-23T04:42:34.857Z,0
2016-11-23T04:43:15.394Z,0
2016-11-23T04:43:55.936Z,0
2016-11-23T04:44:36.475Z,0
2016-11-23T04:45:17.013Z,0
2016-11-23T04:45:57.553Z,0
2016-11-23T04:46:38.104Z,0
2016-11-23T04:47:18.652Z,0
2016-11-23T04:47:59.219Z,0
2016-11-23T04:48:39.769Z,0
2016-11-23T04:49:20.313Z,0
2016-11-23T04:50:00.858Z,0
2016-11-23T04:50:41.400Z,0
2016-11-23T04:51:21.932Z,0
2016-11-23T04:52:02.474Z,0
2016-11-23T04:52:43.019Z,0
2016-11-23T04:53:23.553Z,0
2016-11-23T04:54:04.095Z,0
2016-11-23T04:54:44.631Z,0
2016-11-23T04:55:25.167Z,0
2016-11-23T04:56:05.706Z,0
2016-11-23T04:56:46.248Z,0
2016-11-23T04:57:26.787Z,0
2016-11-23T04:58:07.323Z,0
2016-11-23T04:58:47.852Z,0
2016-11-23T04:59:28.393Z,0
2016-11-23T05:00:08.933Z,0
2016-11-23T05:00:49.474Z,0
2016-11-23T05:01:30.011Z,0
2016-11-23T05:02:10.555Z,0
2016-11-23T05:02:51.090Z,0
2016-11-23T05:03:31.634Z,0
2016-11-23T05:04:12.169Z,0
2016-11-23T05:04:52.708Z,0
2016-11-23T05:05:33.253Z,0
2016-11-23T05:06:13.792Z,0
2016-11-23T05:06:54.320Z,0
2016-11-23T05:07:34.860Z,0
2016-11-23T05:08:15.406Z,0
2016-11-23T05:08:55.947Z,0
2016-11-23T05:09:36.497Z,0
2016-11-23T05:10:17.013Z,0
2016-11-23T05:10:57.576Z,0
2016-11-23T05:11:38.133Z,0
2016-11-23T05:12:18.663Z,0
2016-11-23T05:12:59.193Z,0
2016-11-23T05:13:39.726Z,0
2016-11-23T05:14:20.324Z,0
2016-11-23T05:15:00.865Z,0
2016-11-23T05:15:41.445Z,0
2016-11-23T05:16:21.972Z,0
2016-11-23T05:17:02.514Z,0
2016-11-23T05:17:43.047Z,0
2016-11-23T05:18:23.591Z,0
2016-11-23T05:19:04.129Z,0
2016-11-23T05:19:44.669Z,0
2016-11-23T05:20:25.207Z,0
2016-11-23T05:21:05.749Z,0
2016-11-23T05:21:46.292Z,0
2016-11-23T05:22:26.831Z,0
2016-11-23T05:23:07.372Z,0
2016-11-23T05:23:47.916Z,0
2016-11-23T05:24:28.453Z,0
2016-11-23T05:25:09.000Z,0
2016-11-23T05:25:49.536Z,0
2016-11-23T05:26:30.074Z,0
2016-11-23T05:27:10.615Z,0
2016-11-23T05:27:51.156Z,0
2016-11-23T05:28:31.697Z,0
2016-11-23T05:29:12.231Z,0
2016-11-23T05:29:52.776Z,0
2016-11-23T05:30:33.313Z,0
2016-11-23T05:31:14.783Z,0
2016-11-23T05:31:55.327Z,0
2016-11-23T05:32:35.869Z,0
2016-11-23T05:33:16.429Z,0
2016-11-23T05:33:56.979Z,0
2016-11-23T05:34:37.529Z,0
2016-11-23T05:37:32.395Z,0
2016-11-23T05:38:12.932Z,0
2016-11-23T05:38:53.478Z,0
2016-11-23T05:39:34.013Z,0
2016-11-23T05:40:14.553Z,0
2016-11-23T05:40:55.090Z,0
2016-11-23T05:41:35.623Z,0
2016-11-23T05:42:16.148Z,0
2016-11-23T05:42:56.683Z,0
2016-11-23T05:43:37.228Z,0
2016-11-23T05:44:17.759Z,0
2016-11-23T05:44:58.294Z,0
2016-11-23T05:45:38.865Z,0
2016-11-23T05:46:19.400Z,0
2016-11-23T05:46:59.939Z,0
2016-11-23T05:47:40.475Z,0
2016-11-23T05:48:21.013Z,0
2016-11-23T05:49:01.537Z,0
2016-11-23T05:49:42.077Z,0
2016-11-23T05:50:22.610Z,0
2016-11-23T05:51:03.153Z,0
2016-11-23T05:51:43.680Z,0
2016-11-23T05:52:24.226Z,0
2016-11-23T05:53:04.755Z,0
2016-11-23T05:53:45.297Z,0
2016-11-23T05:54:25.837Z,0
2016-11-23T05:55:06.411Z,0
2016-11-23T05:55:47.023Z,0
2016-11-23T05:56:27.561Z,0
2016-11-23T05:57:08.100Z,0
2016-11-23T05:57:48.663Z,0
2016-11-23T05:58:29.191Z,0
2016-11-23T05:59:09.735Z,0
2016-11-23T05:59:50.263Z,0
2016-11-23T06:00:30.799Z,0
2016-11-23T06:01:11.323Z,0
2016-11-23T06:01:51.860Z,0
2016-11-23T06:02:32.402Z,0
2016-11-23T06:03:12.949Z,0
2016-11-23T06:03:53.480Z,0
2016-11-23T06:04:34.030Z,0
2016-11-23T06:05:14.569Z,0
2016-11-23T06:05:55.130Z,0
2016-11-23T06:06:35.669Z,0
2016-11-23T06:07:16.198Z,0
2016-11-23T06:07:56.737Z,0
2016-11-23T06:08:37.294Z,0
2016-11-23T06:09:17.834Z,0
2016-11-23T06:09:58.373Z,0
2016-11-23T06:10:38.933Z,0
2016-11-23T06:11:19.472Z,0
2016-11-23T06:12:00.015Z,0
2016-11-23T06:12:40.556Z,0
2016-11-23T06:13:21.101Z,0
2016-11-23T06:14:01.630Z,0
2016-11-23T06:14:42.178Z,0
2016-11-23T06:15:22.707Z,0
2016-11-23T06:16:03.246Z,0
2016-11-23T06:16:43.789Z,0
2016-11-23T06:17:24.322Z,0
2016-11-23T06:18:04.867Z,0
2016-11-23T06:18:45.405Z,0
2016-11-23T06:19:25.950Z,0
2016-11-23T06:20:06.487Z,0
2016-11-23T06:20:47.010Z,0
2016-11-23T06:21:27.552Z,0
2016-11-23T06:22:08.088Z,0
2016-11-23T06:22:48.625Z,0
2016-11-23T06:23:29.169Z,0
2016-11-23T06:24:09.725Z,0
2016-11-23T06:24:50.283Z,0
2016-11-23T06:25:30.831Z,0
2016-11-23T06:26:11.361Z,0
2016-11-23T06:26:51.908Z,0
2016-11-23T06:27:32.451Z,0
2016-11-23T06:28:13.095Z,0
2016-11-23T06:28:53.628Z,0
2016-11-23T06:29:34.172Z,0
2016-11-23T06:30:14.704Z,0
2016-11-23T06:30:55.243Z,0
2016-11-23T06:31:35.779Z,0
2016-11-23T06:32:16.315Z,0
2016-11-23T06:32:56.862Z,0
2016-11-23T06:33:37.399Z,0
2016-11-23T06:34:17.948Z,0
2016-11-23T06:34:58.475Z,0
2016-11-23T06:35:39.029Z,0
2016-11-23T06:36:19.555Z,0
2016-11-23T06:37:00.079Z,0
2016-11-23T06:37:40.646Z,0
2016-11-23T06:38:21.176Z,0
2016-11-23T06:39:01.890Z,0
2016-11-23T06:39:42.425Z,0
2016-11-23T06:40:22.959Z,0
2016-11-23T06:41:03.497Z,0
2016-11-23T06:41:44.032Z,0
2016-11-23T06:42:24.593Z,0
2016-11-23T06:43:05.142Z,0
2016-11-23T06:43:45.680Z,0
2016-11-23T06:44:26.212Z,0
2016-11-23T06:45:06.758Z,0
2016-11-23T06:45:47.283Z,0
2016-11-23T06:46:27.833Z,0
2016-11-23T06:47:08.357Z,0
2016-11-23T06:47:48.887Z,0
2016-11-23T06:48:29.433Z,0
2016-11-23T06:49:09.960Z,0
2016-11-23T06:49:50.500Z,0
2016-11-23T06:50:31.042Z,0
2016-11-23T06:51:11.568Z,0
2016-11-23T06:51:52.094Z,0
2016-11-23T06:52:32.644Z,0
2016-11-23T06:53:13.186Z,0
2016-11-23T06:53:53.724Z,0
2016-11-23T06:54:34.267Z,0
2016-11-23T06:55:14.806Z,0
2016-11-23T06:55:55.345Z,0
2016-11-23T06:56:35.959Z,0
2016-11-23T06:57:16.492Z,0
2016-11-23T06:57:57.020Z,0
2016-11-23T06:58:37.563Z,0
2016-11-23T06:59:18.089Z,0
2016-11-23T06:59:58.623Z,0
2016-11-23T07:00:39.164Z,0
2016-11-23T07:01:19.698Z,0
2016-11-23T07:02:00.235Z,0
2016-11-23T07:02:40.776Z,0
2016-11-23T07:03:21.303Z,0
2016-11-23T07:04:01.832Z,0
2016-11-23T07:04:42.372Z,5
2016-11-23T07:05:22.913Z,5
2016-11-23T07:06:03.447Z,5
2016-11-23T07:06:43.988Z,5
2016-11-23T07:07:24.528Z,5
2016-11-23T07:08:05.058Z,5
2016-11-23T07:08:45.591Z,5
2016-11-23T07:09:26.129Z,5
2016-11-23T07:10:06.670Z,5
2016-11-23T07:10:47.203Z,5
2016-11-23T07:11:27.753Z,5
2016-11-23T07:12:08.297Z,5
2016-11-23T07:12:48.835Z,5
2016-11-23T07:13:29.373Z,5
2016-11-23T07:14:09.912Z,5
2016-11-23T07:14:50.441Z,5
2016-11-23T07:15:30.980Z,10
2016-11-23T07:16:11.525Z,10
2016-11-23T07:16:52.073Z,10
2016-11-23T07:17:32.608Z,10
2016-11-23T07:18:13.154Z,10
2016-11-23T07:18:53.695Z,10
2016-11-23T07:19:34.232Z,10
2016-11-23T07:20:14.773Z,10
2016-11-23T07:20:55.307Z,10
2016-11-23T07:21:35.839Z,15
2016-11-23T07:22:16.375Z,15
2016-11-23T07:22:56.911Z,15
2016-11-23T07:23:37.449Z,15
2016-11-23T07:24:17.993Z,15
2016-11-23T07:24:58.528Z,15
2016-11-23T07:25:39.056Z,15
2016-11-23T07:26:19.583Z,15
2016-11-23T07:27:00.118Z,20
2016-11-23T07:27:40.649Z,20
2016-11-23T07:28:21.184Z,20
2016-11-23T07:29:01.717Z,20
2016-11-23T07:29:42.254Z,20
2016-11-23T07:30:22.789Z,20
2016-11-23T07:31:03.332Z,20
2016-11-23T07:31:43.869Z,20
2016-11-23T07:32:24.410Z,25
2016-11-23T07:33:04.948Z,25
2016-11-23T07:33:45.480Z,25
2016-11-23T07:34:26.018Z,25
2016-11-23T07:35:06.556Z,25
2016-11-23T07:35:47.075Z,25
2016-11-23T07:36:27.622Z,25
2016-11-23T07:37:08.197Z,25
2016-11-23T07:37:48.742Z,25
2016-11-23T07:38:29.286Z,25
2016-11-23T07:39:09.823Z,25
2016-11-23T07:39:50.409Z,25
2016-11-23T07:40:31.008Z,25
2016-11-23T07:41:11.560Z,25
2016-11-23T07:41:52.110Z,25
2016-11-23T07:42:32.632Z,25
2016-11-23T07:43:13.165Z,25
2016-11-23T07:43:53.821Z,25
2016-11-23T07:44:34.361Z,25
2016-11-23T07:45:14.953Z,25
2016-11-23T07:45:55.478Z,25
2016-11-23T07:46:36.014Z,25
2016-11-23T07:47:16.548Z,25
2016-11-23T07:47:57.086Z,25
2016-11-23T07:48:37.617Z,25
2016-11-23T07:49:18.165Z,30
2016-11-23T07:49:58.704Z,30
2016-11-23T07:50:39.236Z,30
2016-11-23T07:51:19.777Z,30
2016-11-23T07:52:00.316Z,30
2016-11-23T07:52:40.854Z,30
2016-11-23T07:53:21.391Z,30
2016-11-23T07:54:01.936Z,30
2016-11-23T07:54:42.474Z,30
2016-11-23T07:55:23.013Z,30
2016-11-23T07:56:03.541Z,30
2016-11-23T07:56:44.073Z,30
2016-11-23T07:57:24.610Z,30
2016-11-23T07:58:05.146Z,30
2016-11-23T07:58:45.688Z,30
2016-11-23T07:59:26.227Z,30
2016-11-23T08:00:06.761Z,30
2016-11-23T08:00:47.297Z,30
2016-11-23T08:01:27.832Z,30
2016-11-23T08:02:08.369Z,30
2016-11-23T08:02:48.913Z,30
2016-11-23T08:03:29.454Z,30
2016-11-23T08:04:09.997Z,30
2016-11-23T08:04:50.541Z,35
2016-11-23T08:05:31.078Z,35
2016-11-23T08:06:11.614Z,35
2016-11-23T08:06:52.149Z,35
2016-11-23T08:07:32.688Z,35
2016-11-23T08:08:13.228Z,35
2016-11-23T08:08:53.768Z,35
2016-11-23T08:09:34.303Z,35
2016-11-23T08:10:14.848Z,35
2016-11-23T08:10:55.386Z,35
2016-11-23T08:11:35.927Z,40
2016-11-23T08:12:16.464Z,40
2016-11-23T08:12:57.002Z,40
2016-11-23T08:13:37.543Z,40
2016-11-23T08:14:18.082Z,40
2016-11-23T08:14:58.623Z,40
2016-11-23T08:15:39.159Z,40
2016-11-23T08:16:19.699Z,40
2016-11-23T08:17:00.239Z,40
2016-11-23T08:17:40.776Z,40
2016-11-23T08:18:21.309Z,40
2016-11-23T08:19:01.848Z,40
2016-11-23T08:19:42.383Z,40
2016-11-23T08:20:22.927Z,40
2016-11-23T08:21:03.464Z,45
2016-11-23T08:21:44.006Z,45
2016-11-23T08:22:24.544Z,45
2016-11-23T08:23:05.082Z,45
2016-11-23T08:23:45.624Z,45
2016-11-23T08:24:26.163Z,45
2016-11-23T08:25:06.697Z,50
2016-11-23T08:25:47.244Z,50
2016-11-23T08:26:27.784Z,50
2016-11-23T08:27:08.320Z,50
2016-11-23T08:27:48.861Z,55
2016-11-23T08:28:29.400Z,55
2016-11-23T08:29:09.941Z,55
2016-11-23T08:29:50.482Z,55
2016-11-23T08:30:31.020Z,55
2016-11-23T08:31:11.559Z,55
2016-11-23T08:31:52.099Z,55
2016-11-23T08:32:32.633Z,55
2016-11-23T08:33:13.175Z,55
2016-11-23T08:33:53.718Z,60
2016-11-23T08:34:34.256Z,55
2016-11-23T08:35:14.799Z,60
2016-11-23T08:35:55.340Z,60
2016-11-23T08:36:35.875Z,60
2016-11-23T08:37:16.418Z,60
2016-11-23T08:37:56.956Z,60
2016-11-23T08:38:37.493Z,60
2016-11-23T08:39:18.031Z,60
2016-11-23T08:39:58.573Z,60
2016-11-23T08:40:39.114Z,65
2016-11-23T08:41:19.656Z,65
2016-11-23T08:42:00.196Z,65
2016-11-23T08:42:40.730Z,65
2016-11-23T08:43:21.268Z,65
2016-11-23T08:44:01.810Z,65
2016-11-23T08:44:42.346Z,65
2016-11-23T08:45:22.885Z,70
2016-11-23T08:46:03.415Z,70
2016-11-23T08:46:43.950Z,70
2016-11-23T08:47:24.486Z,70
2016-11-23T08:48:05.026Z,70
2016-11-23T08:48:45.565Z,70
2016-11-23T08:49:26.103Z,70
2016-11-23T08:50:06.647Z,70
2016-11-23T08:50:47.173Z,70
2016-11-23T08:51:27.720Z,75
2016-11-23T08:52:08.252Z,75
2016-11-23T08:52:48.801Z,75
2016-11-23T08:53:29.340Z,75
2016-11-23T08:54:09.878Z,75
2016-11-23T08:54:50.418Z,75
2016-11-23T08:55:30.962Z,75
2016-11-23T08:56:11.496Z,75
2016-11-23T08:56:52.038Z,75
2016-11-23T08:57:32.576Z,75
2016-11-23T08:58:13.115Z,75
2016-11-23T08:58:53.656Z,75
2016-11-23T08:59:34.196Z,75
2016-11-23T09:00:14.739Z,75
2016-11-23T09:00:55.278Z,75
2016-11-23T09:01:35.815Z,75
2016-11-23T09:02:16.352Z,75
2016-11-23T09:02:56.895Z,80
2016-11-23T09:03:37.431Z,80
2016-11-23T09:04:17.972Z,80
2016-11-23T09:04:58.514Z,85
2016-11-23T09:05:39.052Z,85
2016-11-23T09:06:19.583Z,85
2016-11-23T09:07:00.122Z,85
2016-11-23T09:07:40.656Z,85
2016-11-23T09:08:21.186Z,85
2016-11-23T09:09:01.729Z,85
2016-11-23T09:09:42.268Z,85
2016-11-23T09:10:22.808Z,85
2016-11-23T09:11:03.343Z,85
2016-11-23T09:11:43.879Z,90
2016-11-23T09:12:24.422Z,90
2016-11-23T09:13:04.961Z,90
2016-11-23T09:13:45.507Z,95
2016-11-23T09:14:26.048Z,95
2016-11-23T09:15:06.591Z,100
2016-11-23T09:15:47.127Z,95
2016-11-23T09:16:27.666Z,95
2016-11-23T09:17:08.204Z,100
2016-11-23T09:17:48.744Z,100
2016-11-23T09:18:29.281Z,100
2016-11-23T09:19:09.817Z,105
2016-11-23T09:19:50.363Z,105
2016-11-23T09:20:30.895Z,105
2016-11-23T09:21:11.438Z,110
2016-11-23T09:21:51.982Z,110
2016-11-23T09:22:32.528Z,115
2016-11-23T09:23:13.068Z,115
2016-11-23T09:23:53.606Z,115
2016-11-23T09:24:34.146Z,120
2016-11-23T09:25:14.683Z,120
2016-11-23T09:25:55.222Z,120
2016-11-23T09:26:35.802Z,125
2016-11-23T09:27:16.341Z,125
2016-11-23T09:27:56.877Z,125
2016-11-23T09:28:37.425Z,125
2016-11-23T09:29:17.956Z,125
2016-11-23T09:29:58.506Z,130
2016-11-23T09:30:39.043Z,130
2016-11-23T09:31:19.587Z,130
2016-11-23T09:32:00.127Z,130
2016-11-23T09:32:40.671Z,130
2016-11-23T09:33:21.209Z,130
2016-11-23T09:34:01.750Z,130
2016-11-23T09:34:42.282Z,130
2016-11-23T09:35:22.825Z,130
2016-11-23T09:36:03.366Z,130
2016-11-23T09:36:43.910Z,130
2016-11-23T09:37:24.448Z,135
2016-11-23T09:38:04.985Z,130
2016-11-23T09:38:45.526Z,135
2016-11-23T09:39:26.064Z,135
2016-11-23T09:40:06.592Z,140
2016-11-23T09:40:47.139Z,135
2016-11-23T09:41:27.676Z,135
2016-11-23T09:42:08.217Z,135
2016-11-23T09:42:48.761Z,135
2016-11-23T09:43:29.302Z,135
2016-11-23T09:44:09.840Z,135
2016-11-23T09:44:50.381Z,130
2016-11-23T09:45:30.927Z,130
2016-11-23T09:46:11.467Z,130
2016-11-23T09:46:52.009Z,130
2016-11-23T09:47:32.546Z,130
2016-11-23T09:48:13.086Z,130
2016-11-23T09:48:53.623Z,130
2016-11-23T09:49:34.162Z,130
2016-11-23T09:50:14.708Z,130
2016-11-23T09:50:55.242Z,130
2016-11-23T09:51:35.784Z,135
2016-11-23T09:52:16.311Z,135
2016-11-23T09:52:56.848Z,135
2016-11-23T09:53:37.390Z,135
2016-11-23T09:54:17.927Z,135
2016-11-23T09:54:58.471Z,140
2016-11-23T09:55:39.017Z,140
2016-11-23T09:56:19.560Z,140
2016-11-23T09:57:00.101Z,140
2016-11-23T09:57:40.642Z,145
2016-11-23T09:58:21.176Z,145
2016-11-23T09:59:01.719Z,145
2016-11-23T09:59:42.258Z,150
2016-11-23T10:00:22.806Z,155
2016-11-23T10:01:03.349Z,155
2016-11-23T10:01:43.885Z,155
2016-11-23T10:02:24.427Z,155
2016-11-23T10:03:04.969Z,155
2016-11-23T10:03:45.519Z,155
2016-11-23T10:04:26.060Z,150
2016-11-23T10:05:06.601Z,150
2016-11-23T10:05:47.140Z,155
2016-11-23T10:06:27.678Z,155
2016-11-23T10:07:08.219Z,155
2016-11-23T10:07:48.758Z,155
2016-11-23T10:08:29.304Z,155
2016-11-23T10:09:09.844Z,150
2016-11-23T10:09:50.377Z,150
2016-11-23T10:10:30.915Z,150
2016-11-23T10:11:11.452Z,145
2016-11-23T10:11:51.990Z,145
2016-11-23T10:12:32.531Z,155
2016-11-23T10:13:13.070Z,150
2016-11-23T10:13:53.618Z,155
2016-11-23T10:14:34.163Z,165